Olympia, Kentucky
Current Conditions -  °F | °C
As of 8:10 PM on Friday 28 Nov 2014 (Local Time) from KSYM Reporting Station
Clear Clear  
Wind Chill: -3°   Ceiling: Unl
Heat Index:   Visibility: 10mi
Dew Point: -8°   Wind: 6mph
Humidity: 55%   Direction: 140°SE
Pressure: 30.2"   Gusts: NA
Location:  38.1°N, 83.7°W
Report Text: KSYM 290110Z AUTO 14005KT 10SM CLR M00/M08 A3020 RMK AO2
Loading
Personal Weather Stations






























Interactive Weather Map New forecast layout! Learn more

10-Day Weather Forecast

Advertisements
Track Severe Weather on mobile